sensor_id;sensor_type;location;lat;lon;timestamp;P1;durP1;ratioP1;P2;durP2;ratioP2
5559;SDS011;2803;47.916;8.074;2024-03-22T00:01:07;10.63;;;4.30;;
5559;SDS011;2803;47.916;8.074;2024-03-22T00:03:33;9.50;;;3.60;;
5559;SDS011;2803;47.916;8.074;2024-03-22T00:05:59;7.53;;;4.80;;
5559;SDS011;2803;47.916;8.074;2024-03-22T00:08:26;25.97;;;4.03;;
5559;SDS011;2803;47.916;8.074;2024-03-22T00:10:51;6.30;;;3.50;;
5559;SDS011;2803;47.916;8.074;2024-03-22T00:13:18;8.70;;;3.60;;
5559;SDS011;2803;47.916;8.074;2024-03-22T00:15:45;6.50;;;3.90;;
5559;SDS011;2803;47.916;8.074;2024-03-22T00:18:11;9.50;;;4.07;;
5559;SDS011;2803;47.916;8.074;2024-03-22T00:20:37;6.00;;;3.97;;
5559;SDS011;2803;47.916;8.074;2024-03-22T00:23:03;9.07;;;4.23;;
5559;SDS011;2803;47.916;8.074;2024-03-22T00:25:31;7.17;;;4.07;;
5559;SDS011;2803;47.916;8.074;2024-03-22T00:27:57;7.13;;;4.50;;
5559;SDS011;2803;47.916;8.074;2024-03-22T00:30:23;11.20;;;4.37;;
5559;SDS011;2803;47.916;8.074;2024-03-22T00:32:51;13.87;;;5.10;;
5559;SDS011;2803;47.916;8.074;2024-03-22T00:35:17;6.43;;;4.20;;
5559;SDS011;2803;47.916;8.074;2024-03-22T00:37:43;5.37;;;4.20;;
5559;SDS011;2803;47.916;8.074;2024-03-22T00:40:09;9.20;;;4.37;;
5559;SDS011;2803;47.916;8.074;2024-03-22T00:42:36;9.67;;;4.27;;
5559;SDS011;2803;47.916;8.074;2024-03-22T00:45:02;7.23;;;4.33;;
5559;SDS011;2803;47.916;8.074;2024-03-22T00:47:29;7.83;;;5.13;;
5559;SDS011;2803;47.916;8.074;2024-03-22T00:49:56;12.30;;;4.90;;
5559;SDS011;2803;47.916;8.074;2024-03-22T00:52:22;14.40;;;4.53;;
5559;SDS011;2803;47.916;8.074;2024-03-22T00:54:50;15.33;;;5.40;;
5559;SDS011;2803;47.916;8.074;2024-03-22T00:57:16;7.70;;;4.60;;
5559;SDS011;2803;47.916;8.074;2024-03-22T00:59:42;6.43;;;3.60;;
5559;SDS011;2803;47.916;8.074;2024-03-22T01:02:09;8.40;;;3.70;;
5559;SDS011;2803;47.916;8.074;2024-03-22T01:04:34;9.73;;;4.10;;
5559;SDS011;2803;47.916;8.074;2024-03-22T01:07:02;13.50;;;4.37;;
5559;SDS011;2803;47.916;8.074;2024-03-22T01:09:28;10.27;;;3.57;;
5559;SDS011;2803;47.916;8.074;2024-03-22T01:11:55;8.53;;;4.33;;
5559;SDS011;2803;47.916;8.074;2024-03-22T01:14:20;9.67;;;4.20;;
5559;SDS011;2803;47.916;8.074;2024-03-22T01:16:47;7.40;;;4.30;;
5559;SDS011;2803;47.916;8.074;2024-03-22T01:19:12;8.60;;;5.03;;
5559;SDS011;2803;47.916;8.074;2024-03-22T01:21:39;9.03;;;4.43;;
5559;SDS011;2803;47.916;8.074;2024-03-22T01:24:06;8.40;;;4.80;;
5559;SDS011;2803;47.916;8.074;2024-03-22T01:26:32;7.07;;;3.90;;
5559;SDS011;2803;47.916;8.074;2024-03-22T01:28:58;10.20;;;5.37;;
5559;SDS011;2803;47.916;8.074;2024-03-22T01:31:25;9.30;;;4.70;;
5559;SDS011;2803;47.916;8.074;2024-03-22T01:33:50;6.80;;;4.03;;
5559;SDS011;2803;47.916;8.074;2024-03-22T01:36:17;9.30;;;4.83;;
5559;SDS011;2803;47.916;8.074;2024-03-22T01:38:42;9.50;;;5.20;;
5559;SDS011;2803;47.916;8.074;2024-03-22T01:41:10;11.53;;;4.80;;
5559;SDS011;2803;47.916;8.074;2024-03-22T01:43:36;7.73;;;3.90;;
5559;SDS011;2803;47.916;8.074;2024-03-22T01:46:02;8.23;;;4.60;;
5559;SDS011;2803;47.916;8.074;2024-03-22T01:48:30;5.57;;;3.60;;
5559;SDS011;2803;47.916;8.074;2024-03-22T01:50:57;8.00;;;4.50;;
5559;SDS011;2803;47.916;8.074;2024-03-22T01:53:23;11.43;;;4.60;;
5559;SDS011;2803;47.916;8.074;2024-03-22T01:55:49;7.40;;;4.60;;
5559;SDS011;2803;47.916;8.074;2024-03-22T01:58:17;9.70;;;4.70;;
5559;SDS011;2803;47.916;8.074;2024-03-22T02:00:43;11.33;;;4.40;;
5559;SDS011;2803;47.916;8.074;2024-03-22T02:03:10;7.67;;;4.47;;
5559;SDS011;2803;47.916;8.074;2024-03-22T02:05:37;6.30;;;3.67;;
5559;SDS011;2803;47.916;8.074;2024-03-22T02:08:03;8.90;;;4.43;;
5559;SDS011;2803;47.916;8.074;2024-03-22T02:10:29;9.20;;;4.20;;
5559;SDS011;2803;47.916;8.074;2024-03-22T02:12:56;8.90;;;4.80;;
5559;SDS011;2803;47.916;8.074;2024-03-22T02:15:24;11.20;;;3.93;;
5559;SDS011;2803;47.916;8.074;2024-03-22T02:17:50;9.00;;;4.43;;
5559;SDS011;2803;47.916;8.074;2024-03-22T02:20:16;11.73;;;4.90;;
5559;SDS011;2803;47.916;8.074;2024-03-22T02:22:42;6.40;;;3.97;;
5559;SDS011;2803;47.916;8.074;2024-03-22T02:25:09;13.60;;;4.30;;
5559;SDS011;2803;47.916;8.074;2024-03-22T02:27:37;9.70;;;5.00;;
5559;SDS011;2803;47.916;8.074;2024-03-22T02:30:03;14.00;;;4.70;;
5559;SDS011;2803;47.916;8.074;2024-03-22T02:32:31;9.20;;;3.87;;
5559;SDS011;2803;47.916;8.074;2024-03-22T02:34:56;6.87;;;3.43;;
5559;SDS011;2803;47.916;8.074;2024-03-22T02:37:24;9.23;;;5.47;;
5559;SDS011;2803;47.916;8.074;2024-03-22T02:39:50;12.03;;;5.37;;
5559;SDS011;2803;47.916;8.074;2024-03-22T02:42:18;10.07;;;4.60;;
5559;SDS011;2803;47.916;8.074;2024-03-22T02:44:43;9.70;;;5.10;;
5559;SDS011;2803;47.916;8.074;2024-03-22T02:47:10;13.93;;;4.97;;
5559;SDS011;2803;47.916;8.074;2024-03-22T02:49:37;6.50;;;4.60;;
5559;SDS011;2803;47.916;8.074;2024-03-22T02:52:04;9.87;;;5.43;;
5559;SDS011;2803;47.916;8.074;2024-03-22T02:54:30;9.20;;;5.60;;
5559;SDS011;2803;47.916;8.074;2024-03-22T02:56:56;8.47;;;5.03;;
5559;SDS011;2803;47.916;8.074;2024-03-22T02:59:26;6.20;;;4.30;;
5559;SDS011;2803;47.916;8.074;2024-03-22T03:01:53;5.33;;;3.77;;
5559;SDS011;2803;47.916;8.074;2024-03-22T03:04:19;8.33;;;4.17;;
5559;SDS011;2803;47.916;8.074;2024-03-22T03:06:45;5.60;;;3.33;;
5559;SDS011;2803;47.916;8.074;2024-03-22T03:09:11;7.57;;;3.63;;
5559;SDS011;2803;47.916;8.074;2024-03-22T03:11:38;10.03;;;4.73;;
5559;SDS011;2803;47.916;8.074;2024-03-22T03:14:04;10.20;;;5.30;;
5559;SDS011;2803;47.916;8.074;2024-03-22T03:16:32;11.40;;;5.40;;
5559;SDS011;2803;47.916;8.074;2024-03-22T03:18:58;6.70;;;3.90;;
5559;SDS011;2803;47.916;8.074;2024-03-22T03:21:25;9.30;;;4.90;;
5559;SDS011;2803;47.916;8.074;2024-03-22T03:23:50;10.37;;;5.30;;
5559;SDS011;2803;47.916;8.074;2024-03-22T03:26:17;13.93;;;5.97;;
5559;SDS011;2803;47.916;8.074;2024-03-22T03:28:43;9.67;;;5.60;;
5559;SDS011;2803;47.916;8.074;2024-03-22T03:31:09;12.23;;;5.07;;
5559;SDS011;2803;47.916;8.074;2024-03-22T03:33:36;10.20;;;4.47;;
5559;SDS011;2803;47.916;8.074;2024-03-22T03:36:03;10.60;;;5.00;;
5559;SDS011;2803;47.916;8.074;2024-03-22T03:38:29;12.03;;;5.17;;
5559;SDS011;2803;47.916;8.074;2024-03-22T03:40:56;8.70;;;4.30;;
5559;SDS011;2803;47.916;8.074;2024-03-22T03:43:21;8.90;;;4.30;;
5559;SDS011;2803;47.916;8.074;2024-03-22T03:45:48;6.87;;;4.50;;
5559;SDS011;2803;47.916;8.074;2024-03-22T03:48:13;8.80;;;5.13;;
5559;SDS011;2803;47.916;8.074;2024-03-22T03:50:41;8.17;;;4.47;;
5559;SDS011;2803;47.916;8.074;2024-03-22T03:53:15;8.90;;;4.83;;
5559;SDS011;2803;47.916;8.074;2024-03-22T03:55:42;9.60;;;5.00;;
5559;SDS011;2803;47.916;8.074;2024-03-22T03:58:07;8.50;;;4.80;;
5559;SDS011;2803;47.916;8.074;2024-03-22T04:00:34;10.07;;;4.60;;
5559;SDS011;2803;47.916;8.074;2024-03-22T04:03:00;7.93;;;4.47;;
5559;SDS011;2803;47.916;8.074;2024-03-22T04:05:27;10.20;;;4.83;;
5559;SDS011;2803;47.916;8.074;2024-03-22T04:07:53;7.67;;;4.40;;
5559;SDS011;2803;47.916;8.074;2024-03-22T04:10:20;10.03;;;4.47;;
5559;SDS011;2803;47.916;8.074;2024-03-22T04:12:46;12.40;;;5.13;;
5559;SDS011;2803;47.916;8.074;2024-03-22T04:15:12;12.50;;;6.30;;
5559;SDS011;2803;47.916;8.074;2024-03-22T04:17:38;12.90;;;5.67;;
5559;SDS011;2803;47.916;8.074;2024-03-22T04:20:05;11.20;;;5.40;;
5559;SDS011;2803;47.916;8.074;2024-03-22T04:22:32;9.63;;;5.20;;
5559;SDS011;2803;47.916;8.074;2024-03-22T04:25:00;5.60;;;4.40;;
5559;SDS011;2803;47.916;8.074;2024-03-22T04:27:25;7.70;;;4.27;;
5559;SDS011;2803;47.916;8.074;2024-03-22T04:29:52;8.90;;;4.40;;
5559;SDS011;2803;47.916;8.074;2024-03-22T04:32:17;10.60;;;6.10;;
5559;SDS011;2803;47.916;8.074;2024-03-22T04:34:44;8.00;;;5.30;;
5559;SDS011;2803;47.916;8.074;2024-03-22T04:37:10;9.60;;;4.63;;
5559;SDS011;2803;47.916;8.074;2024-03-22T04:39:37;8.47;;;5.50;;
5559;SDS011;2803;47.916;8.074;2024-03-22T04:42:05;11.63;;;5.80;;
5559;SDS011;2803;47.916;8.074;2024-03-22T04:44:32;10.00;;;4.87;;
5559;SDS011;2803;47.916;8.074;2024-03-22T04:46:58;9.50;;;5.17;;
5559;SDS011;2803;47.916;8.074;2024-03-22T04:49:24;8.00;;;5.27;;
5559;SDS011;2803;47.916;8.074;2024-03-22T04:51:50;7.70;;;4.80;;
5559;SDS011;2803;47.916;8.074;2024-03-22T04:54:16;10.70;;;5.50;;
5559;SDS011;2803;47.916;8.074;2024-03-22T04:56:42;14.40;;;5.40;;
5559;SDS011;2803;47.916;8.074;2024-03-22T04:59:10;7.27;;;4.90;;
5559;SDS011;2803;47.916;8.074;2024-03-22T05:01:35;9.00;;;5.20;;
5559;SDS011;2803;47.916;8.074;2024-03-22T05:04:02;9.50;;;5.13;;
5559;SDS011;2803;47.916;8.074;2024-03-22T05:06:28;11.83;;;4.30;;
5559;SDS011;2803;47.916;8.074;2024-03-22T05:08:55;7.73;;;4.60;;
5559;SDS011;2803;47.916;8.074;2024-03-22T05:11:21;6.63;;;4.30;;
5559;SDS011;2803;47.916;8.074;2024-03-22T05:13:47;8.73;;;5.03;;
5559;SDS011;2803;47.916;8.074;2024-03-22T05:16:14;7.30;;;4.27;;
5559;SDS011;2803;47.916;8.074;2024-03-22T05:18:41;11.50;;;4.43;;
5559;SDS011;2803;47.916;8.074;2024-03-22T05:21:08;11.30;;;5.00;;
5559;SDS011;2803;47.916;8.074;2024-03-22T05:23:35;7.73;;;4.90;;
5559;SDS011;2803;47.916;8.074;2024-03-22T05:26:00;12.90;;;6.13;;
5559;SDS011;2803;47.916;8.074;2024-03-22T05:28:29;6.67;;;5.07;;
5559;SDS011;2803;47.916;8.074;2024-03-22T05:30:55;9.50;;;5.67;;
5559;SDS011;2803;47.916;8.074;2024-03-22T05:33:23;6.97;;;4.20;;
5559;SDS011;2803;47.916;8.074;2024-03-22T05:35:49;10.17;;;4.80;;
5559;SDS011;2803;47.916;8.074;2024-03-22T05:38:15;12.90;;;5.83;;
5559;SDS011;2803;47.916;8.074;2024-03-22T05:40:41;15.30;;;4.60;;
5559;SDS011;2803;47.916;8.074;2024-03-22T05:43:10;13.70;;;5.10;;
5559;SDS011;2803;47.916;8.074;2024-03-22T05:45:35;10.80;;;5.40;;
5559;SDS011;2803;47.916;8.074;2024-03-22T05:48:02;9.40;;;5.23;;
5559;SDS011;2803;47.916;8.074;2024-03-22T05:50:30;16.53;;;4.83;;
5559;SDS011;2803;47.916;8.074;2024-03-22T05:52:56;6.33;;;4.70;;
5559;SDS011;2803;47.916;8.074;2024-03-22T05:55:22;7.03;;;5.00;;
5559;SDS011;2803;47.916;8.074;2024-03-22T05:57:52;9.77;;;4.77;;
5559;SDS011;2803;47.916;8.074;2024-03-22T06:00:17;8.90;;;4.07;;
5559;SDS011;2803;47.916;8.074;2024-03-22T06:02:44;11.43;;;4.70;;
5559;SDS011;2803;47.916;8.074;2024-03-22T06:05:10;9.20;;;5.30;;
5559;SDS011;2803;47.916;8.074;2024-03-22T06:07:38;8.27;;;4.80;;
5559;SDS011;2803;47.916;8.074;2024-03-22T06:10:07;9.23;;;4.80;;
5559;SDS011;2803;47.916;8.074;2024-03-22T06:12:34;9.40;;;5.33;;
5559;SDS011;2803;47.916;8.074;2024-03-22T06:15:00;8.13;;;4.57;;
5559;SDS011;2803;47.916;8.074;2024-03-22T06:17:31;7.80;;;5.20;;
5559;SDS011;2803;47.916;8.074;2024-03-22T06:19:57;10.40;;;5.40;;
5559;SDS011;2803;47.916;8.074;2024-03-22T06:22:24;6.40;;;3.93;;
5559;SDS011;2803;47.916;8.074;2024-03-22T06:24:51;6.80;;;4.43;;
5559;SDS011;2803;47.916;8.074;2024-03-22T06:27:18;9.23;;;5.13;;
5559;SDS011;2803;47.916;8.074;2024-03-22T06:29:44;7.70;;;4.90;;
5559;SDS011;2803;47.916;8.074;2024-03-22T06:32:11;11.93;;;5.73;;
5559;SDS011;2803;47.916;8.074;2024-03-22T06:34:36;10.10;;;4.40;;
5559;SDS011;2803;47.916;8.074;2024-03-22T06:37:03;6.33;;;4.63;;
5559;SDS011;2803;47.916;8.074;2024-03-22T06:39:29;7.57;;;4.00;;
5559;SDS011;2803;47.916;8.074;2024-03-22T06:41:57;5.40;;;4.13;;
5559;SDS011;2803;47.916;8.074;2024-03-22T06:44:22;10.90;;;5.13;;
5559;SDS011;2803;47.916;8.074;2024-03-22T06:46:49;8.27;;;5.13;;
5559;SDS011;2803;47.916;8.074;2024-03-22T06:49:15;8.67;;;4.43;;
5559;SDS011;2803;47.916;8.074;2024-03-22T06:51:42;8.70;;;5.20;;
5559;SDS011;2803;47.916;8.074;2024-03-22T06:54:08;13.70;;;5.63;;
5559;SDS011;2803;47.916;8.074;2024-03-22T06:56:34;10.80;;;4.80;;
5559;SDS011;2803;47.916;8.074;2024-03-22T06:59:01;9.30;;;4.40;;
5559;SDS011;2803;47.916;8.074;2024-03-22T07:01:28;6.37;;;3.73;;
5559;SDS011;2803;47.916;8.074;2024-03-22T07:03:54;7.93;;;4.13;;
5559;SDS011;2803;47.916;8.074;2024-03-22T07:06:20;12.00;;;4.90;;
5559;SDS011;2803;47.916;8.074;2024-03-22T07:08:46;9.93;;;5.30;;
5559;SDS011;2803;47.916;8.074;2024-03-22T07:11:13;12.97;;;4.67;;
5559;SDS011;2803;47.916;8.074;2024-03-22T07:13:38;7.30;;;4.10;;
5559;SDS011;2803;47.916;8.074;2024-03-22T07:16:06;8.60;;;4.00;;
5559;SDS011;2803;47.916;8.074;2024-03-22T07:18:32;6.70;;;4.03;;
5559;SDS011;2803;47.916;8.074;2024-03-22T07:20:59;5.17;;;3.63;;
5559;SDS011;2803;47.916;8.074;2024-03-22T07:23:26;8.63;;;5.50;;
5559;SDS011;2803;47.916;8.074;2024-03-22T07:25:53;8.20;;;3.60;;
5559;SDS011;2803;47.916;8.074;2024-03-22T07:28:19;5.43;;;3.27;;
5559;SDS011;2803;47.916;8.074;2024-03-22T07:30:45;10.57;;;3.57;;
5559;SDS011;2803;47.916;8.074;2024-03-22T07:33:13;12.10;;;3.90;;
5559;SDS011;2803;47.916;8.074;2024-03-22T07:35:41;8.97;;;3.87;;
5559;SDS011;2803;47.916;8.074;2024-03-22T07:38:08;16.33;;;4.20;;
5559;SDS011;2803;47.916;8.074;2024-03-22T07:40:33;15.77;;;5.60;;
5559;SDS011;2803;47.916;8.074;2024-03-22T07:43:00;12.20;;;4.53;;
5559;SDS011;2803;47.916;8.074;2024-03-22T07:45:30;15.57;;;6.17;;
5559;SDS011;2803;47.916;8.074;2024-03-22T07:47:57;17.67;;;5.93;;
5559;SDS011;2803;47.916;8.074;2024-03-22T07:50:24;12.03;;;5.33;;
5559;SDS011;2803;47.916;8.074;2024-03-22T07:52:51;13.70;;;5.30;;
5559;SDS011;2803;47.916;8.074;2024-03-22T07:55:16;8.90;;;4.40;;
5559;SDS011;2803;47.916;8.074;2024-03-22T07:57:43;7.40;;;3.60;;
5559;SDS011;2803;47.916;8.074;2024-03-22T08:00:09;4.50;;;3.43;;
5559;SDS011;2803;47.916;8.074;2024-03-22T08:02:36;4.40;;;3.03;;
5559;SDS011;2803;47.916;8.074;2024-03-22T08:05:02;8.17;;;3.80;;
5559;SDS011;2803;47.916;8.074;2024-03-22T08:07:30;6.80;;;3.40;;
5559;SDS011;2803;47.916;8.074;2024-03-22T08:09:56;5.20;;;3.13;;
5559;SDS011;2803;47.916;8.074;2024-03-22T08:12:24;6.73;;;2.73;;
5559;SDS011;2803;47.916;8.074;2024-03-22T08:14:49;5.67;;;2.93;;
5559;SDS011;2803;47.916;8.074;2024-03-22T08:17:16;6.57;;;2.90;;
5559;SDS011;2803;47.916;8.074;2024-03-22T08:19:42;5.50;;;3.40;;
5559;SDS011;2803;47.916;8.074;2024-03-22T08:22:09;6.20;;;3.00;;
5559;SDS011;2803;47.916;8.074;2024-03-22T08:24:36;4.33;;;2.80;;
5559;SDS011;2803;47.916;8.074;2024-03-22T08:27:03;14.37;;;3.30;;
5559;SDS011;2803;47.916;8.074;2024-03-22T08:29:29;5.97;;;3.00;;
5559;SDS011;2803;47.916;8.074;2024-03-22T08:31:55;4.30;;;2.50;;
5559;SDS011;2803;47.916;8.074;2024-03-22T08:34:21;4.77;;;2.67;;
5559;SDS011;2803;47.916;8.074;2024-03-22T08:36:48;3.73;;;2.60;;
5559;SDS011;2803;47.916;8.074;2024-03-22T08:39:13;3.30;;;2.37;;
5559;SDS011;2803;47.916;8.074;2024-03-22T08:41:42;4.83;;;2.30;;
5559;SDS011;2803;47.916;8.074;2024-03-22T08:44:08;6.20;;;2.90;;
5559;SDS011;2803;47.916;8.074;2024-03-22T08:46:34;4.43;;;2.50;;
5559;SDS011;2803;47.916;8.074;2024-03-22T08:49:00;6.60;;;3.60;;
5559;SDS011;2803;47.916;8.074;2024-03-22T08:51:28;3.83;;;2.27;;
5559;SDS011;2803;47.916;8.074;2024-03-22T08:53:54;4.57;;;2.90;;
5559;SDS011;2803;47.916;8.074;2024-03-22T08:56:21;3.03;;;2.10;;
5559;SDS011;2803;47.916;8.074;2024-03-22T08:58:48;3.37;;;1.90;;
5559;SDS011;2803;47.916;8.074;2024-03-22T09:01:15;3.87;;;2.20;;
5559;SDS011;2803;47.916;8.074;2024-03-22T09:03:41;5.50;;;1.97;;
5559;SDS011;2803;47.916;8.074;2024-03-22T09:06:11;3.07;;;1.73;;
5559;SDS011;2803;47.916;8.074;2024-03-22T09:08:36;3.97;;;1.67;;
5559;SDS011;2803;47.916;8.074;2024-03-22T09:11:03;5.00;;;2.03;;
5559;SDS011;2803;47.916;8.074;2024-03-22T09:13:29;5.83;;;2.10;;
5559;SDS011;2803;47.916;8.074;2024-03-22T09:15:58;3.57;;;2.20;;
5559;SDS011;2803;47.916;8.074;2024-03-22T09:18:24;6.10;;;2.10;;
5559;SDS011;2803;47.916;8.074;2024-03-22T09:20:51;7.20;;;3.10;;
5559;SDS011;2803;47.916;8.074;2024-03-22T09:23:18;8.10;;;2.27;;
5559;SDS011;2803;47.916;8.074;2024-03-22T09:25:44;7.10;;;2.60;;
5559;SDS011;2803;47.916;8.074;2024-03-22T09:28:11;6.20;;;2.70;;
5559;SDS011;2803;47.916;8.074;2024-03-22T09:30:37;3.87;;;1.97;;
5559;SDS011;2803;47.916;8.074;2024-03-22T09:33:05;3.70;;;1.83;;
5559;SDS011;2803;47.916;8.074;2024-03-22T09:35:32;11.83;;;2.23;;
5559;SDS011;2803;47.916;8.074;2024-03-22T09:37:58;7.83;;;2.17;;
5559;SDS011;2803;47.916;8.074;2024-03-22T09:40:25;6.63;;;2.07;;
5559;SDS011;2803;47.916;8.074;2024-03-22T09:42:50;6.23;;;2.37;;
5559;SDS011;2803;47.916;8.074;2024-03-22T09:45:19;5.73;;;2.37;;
5559;SDS011;2803;47.916;8.074;2024-03-22T09:47:45;5.20;;;1.87;;
5559;SDS011;2803;47.916;8.074;2024-03-22T09:50:15;5.73;;;2.20;;
5559;SDS011;2803;47.916;8.074;2024-03-22T09:52:41;3.93;;;2.10;;
5559;SDS011;2803;47.916;8.074;2024-03-22T09:55:09;9.67;;;2.23;;
5559;SDS011;2803;47.916;8.074;2024-03-22T09:57:35;3.57;;;2.50;;
5559;SDS011;2803;47.916;8.074;2024-03-22T10:00:06;5.33;;;1.80;;
5559;SDS011;2803;47.916;8.074;2024-03-22T10:02:32;7.10;;;2.20;;
5559;SDS011;2803;47.916;8.074;2024-03-22T10:05:00;4.60;;;2.20;;
5559;SDS011;2803;47.916;8.074;2024-03-22T10:07:28;4.60;;;2.10;;
5559;SDS011;2803;47.916;8.074;2024-03-22T10:09:57;4.07;;;2.00;;
5559;SDS011;2803;47.916;8.074;2024-03-22T10:12:23;2.13;;;1.63;;
5559;SDS011;2803;47.916;8.074;2024-03-22T10:14:50;5.37;;;2.13;;
5559;SDS011;2803;47.916;8.074;2024-03-22T10:17:17;5.73;;;1.83;;
5559;SDS011;2803;47.916;8.074;2024-03-22T10:19:44;4.83;;;1.90;;
5559;SDS011;2803;47.916;8.074;2024-03-22T10:22:10;2.70;;;1.70;;
5559;SDS011;2803;47.916;8.074;2024-03-22T10:24:37;9.73;;;2.07;;
5559;SDS011;2803;47.916;8.074;2024-03-22T10:27:03;2.80;;;1.50;;
5559;SDS011;2803;47.916;8.074;2024-03-22T10:29:30;3.00;;;1.70;;
5559;SDS011;2803;47.916;8.074;2024-03-22T10:31:57;3.13;;;1.47;;
5559;SDS011;2803;47.916;8.074;2024-03-22T10:34:25;2.63;;;1.80;;
5559;SDS011;2803;47.916;8.074;2024-03-22T10:36:50;2.90;;;1.80;;
5559;SDS011;2803;47.916;8.074;2024-03-22T10:39:17;5.17;;;1.87;;
5559;SDS011;2803;47.916;8.074;2024-03-22T10:41:45;2.80;;;1.80;;
5559;SDS011;2803;47.916;8.074;2024-03-22T10:44:12;3.83;;;1.90;;
5559;SDS011;2803;47.916;8.074;2024-03-22T10:46:38;5.43;;;2.00;;
5559;SDS011;2803;47.916;8.074;2024-03-22T10:49:11;2.67;;;1.80;;
5559;SDS011;2803;47.916;8.074;2024-03-22T10:51:40;5.10;;;1.90;;
5559;SDS011;2803;47.916;8.074;2024-03-22T10:54:08;3.80;;;1.47;;
5559;SDS011;2803;47.916;8.074;2024-03-22T10:56:35;4.77;;;1.90;;
5559;SDS011;2803;47.916;8.074;2024-03-22T10:59:04;8.87;;;2.27;;
5559;SDS011;2803;47.916;8.074;2024-03-22T11:01:29;3.00;;;1.93;;
5559;SDS011;2803;47.916;8.074;2024-03-22T11:04:03;3.30;;;1.30;;
5559;SDS011;2803;47.916;8.074;2024-03-22T11:06:30;7.40;;;1.57;;
5559;SDS011;2803;47.916;8.074;2024-03-22T11:08:58;2.10;;;1.53;;
5559;SDS011;2803;47.916;8.074;2024-03-22T11:11:25;2.17;;;1.40;;
5559;SDS011;2803;47.916;8.074;2024-03-22T11:13:54;3.10;;;1.33;;
5559;SDS011;2803;47.916;8.074;2024-03-22T11:16:23;1.50;;;1.20;;
5559;SDS011;2803;47.916;8.074;2024-03-22T11:18:49;5.70;;;1.37;;
5559;SDS011;2803;47.916;8.074;2024-03-22T11:21:16;3.93;;;1.00;;
5559;SDS011;2803;47.916;8.074;2024-03-22T11:23:44;1.77;;;1.10;;
5559;SDS011;2803;47.916;8.074;2024-03-22T11:26:11;5.13;;;1.60;;
5559;SDS011;2803;47.916;8.074;2024-03-22T11:28:38;1.97;;;1.20;;
5559;SDS011;2803;47.916;8.074;2024-03-22T11:31:04;1.40;;;1.10;;
5559;SDS011;2803;47.916;8.074;2024-03-22T11:33:32;1.87;;;1.03;;
5559;SDS011;2803;47.916;8.074;2024-03-22T11:35:58;3.40;;;1.73;;
5559;SDS011;2803;47.916;8.074;2024-03-22T11:38:25;1.67;;;1.20;;
5559;SDS011;2803;47.916;8.074;2024-03-22T11:40:52;6.00;;;1.33;;
5559;SDS011;2803;47.916;8.074;2024-03-22T11:43:20;4.40;;;1.30;;
5559;SDS011;2803;47.916;8.074;2024-03-22T11:45:46;2.73;;;1.40;;
5559;SDS011;2803;47.916;8.074;2024-03-22T11:48:13;4.03;;;1.40;;
5559;SDS011;2803;47.916;8.074;2024-03-22T11:50:40;3.80;;;1.27;;
5559;SDS011;2803;47.916;8.074;2024-03-22T11:53:06;2.70;;;1.30;;
5559;SDS011;2803;47.916;8.074;2024-03-22T11:55:32;2.83;;;1.30;;
5559;SDS011;2803;47.916;8.074;2024-03-22T11:58:01;3.27;;;1.60;;
5559;SDS011;2803;47.916;8.074;2024-03-22T12:00:27;2.60;;;1.33;;
5559;SDS011;2803;47.916;8.074;2024-03-22T12:02:54;4.63;;;1.70;;
5559;SDS011;2803;47.916;8.074;2024-03-22T12:05:20;2.80;;;1.50;;
5559;SDS011;2803;47.916;8.074;2024-03-22T12:07:48;1.77;;;1.50;;
5559;SDS011;2803;47.916;8.074;2024-03-22T12:10:16;6.50;;;1.53;;
5559;SDS011;2803;47.916;8.074;2024-03-22T12:12:43;4.03;;;1.87;;
5559;SDS011;2803;47.916;8.074;2024-03-22T12:15:08;4.20;;;1.60;;
5559;SDS011;2803;47.916;8.074;2024-03-22T12:17:35;4.10;;;1.60;;
5559;SDS011;2803;47.916;8.074;2024-03-22T12:20:01;3.60;;;1.60;;
5559;SDS011;2803;47.916;8.074;2024-03-22T12:22:29;2.93;;;1.40;;
5559;SDS011;2803;47.916;8.074;2024-03-22T12:24:57;1.90;;;1.43;;
5559;SDS011;2803;47.916;8.074;2024-03-22T12:27:24;4.63;;;1.50;;
5559;SDS011;2803;47.916;8.074;2024-03-22T12:29:49;2.90;;;1.50;;
5559;SDS011;2803;47.916;8.074;2024-03-22T12:32:16;3.30;;;1.73;;
5559;SDS011;2803;47.916;8.074;2024-03-22T12:34:42;4.03;;;1.70;;
5559;SDS011;2803;47.916;8.074;2024-03-22T12:37:08;3.40;;;1.60;;
5559;SDS011;2803;47.916;8.074;2024-03-22T12:39:34;7.97;;;1.60;;
5559;SDS011;2803;47.916;8.074;2024-03-22T12:42:03;1.87;;;1.47;;
5559;SDS011;2803;47.916;8.074;2024-03-22T12:44:30;2.87;;;1.57;;
5559;SDS011;2803;47.916;8.074;2024-03-22T12:46:57;3.00;;;1.40;;
5559;SDS011;2803;47.916;8.074;2024-03-22T12:49:24;2.90;;;1.73;;
5559;SDS011;2803;47.916;8.074;2024-03-22T12:51:50;2.87;;;1.77;;
5559;SDS011;2803;47.916;8.074;2024-03-22T12:54:16;1.47;;;1.20;;
5559;SDS011;2803;47.916;8.074;2024-03-22T12:56:43;1.97;;;1.10;;
5559;SDS011;2803;47.916;8.074;2024-03-22T12:59:11;2.63;;;1.17;;
5559;SDS011;2803;47.916;8.074;2024-03-22T13:01:37;5.73;;;1.30;;
5559;SDS011;2803;47.916;8.074;2024-03-22T13:04:04;3.97;;;1.37;;
5559;SDS011;2803;47.916;8.074;2024-03-22T13:06:30;3.03;;;1.47;;
5559;SDS011;2803;47.916;8.074;2024-03-22T13:08:59;2.63;;;1.40;;
5559;SDS011;2803;47.916;8.074;2024-03-22T13:11:25;2.63;;;1.13;;
5559;SDS011;2803;47.916;8.074;2024-03-22T13:13:52;2.47;;;0.90;;
5559;SDS011;2803;47.916;8.074;2024-03-22T13:16:19;1.50;;;1.00;;
5559;SDS011;2803;47.916;8.074;2024-03-22T13:18:46;1.60;;;0.97;;
5559;SDS011;2803;47.916;8.074;2024-03-22T13:21:11;1.40;;;0.97;;
5559;SDS011;2803;47.916;8.074;2024-03-22T13:23:38;2.60;;;1.00;;
5559;SDS011;2803;47.916;8.074;2024-03-22T13:26:04;3.40;;;1.00;;
5559;SDS011;2803;47.916;8.074;2024-03-22T13:28:31;2.00;;;1.00;;
5559;SDS011;2803;47.916;8.074;2024-03-22T13:30:59;6.07;;;1.10;;
5559;SDS011;2803;47.916;8.074;2024-03-22T13:33:27;1.37;;;1.00;;
5559;SDS011;2803;47.916;8.074;2024-03-22T13:35:53;3.00;;;1.07;;
5559;SDS011;2803;47.916;8.074;2024-03-22T13:38:19;1.60;;;0.80;;
5559;SDS011;2803;47.916;8.074;2024-03-22T13:40:52;0.90;;;0.70;;
5559;SDS011;2803;47.916;8.074;2024-03-22T13:43:18;1.40;;;0.80;;
5559;SDS011;2803;47.916;8.074;2024-03-22T13:45:45;6.77;;;0.80;;
5559;SDS011;2803;47.916;8.074;2024-03-22T13:48:13;2.50;;;0.90;;
5559;SDS011;2803;47.916;8.074;2024-03-22T13:50:41;1.30;;;0.90;;
5559;SDS011;2803;47.916;8.074;2024-03-22T13:53:06;1.43;;;0.87;;
5559;SDS011;2803;47.916;8.074;2024-03-22T13:55:33;1.63;;;0.90;;
5559;SDS011;2803;47.916;8.074;2024-03-22T13:57:59;1.93;;;1.13;;
5559;SDS011;2803;47.916;8.074;2024-03-22T14:00:26;3.73;;;0.73;;
5559;SDS011;2803;47.916;8.074;2024-03-22T14:02:52;4.37;;;0.83;;
5559;SDS011;2803;47.916;8.074;2024-03-22T14:05:21;1.50;;;0.87;;
5559;SDS011;2803;47.916;8.074;2024-03-22T14:07:50;3.43;;;1.00;;
5559;SDS011;2803;47.916;8.074;2024-03-22T14:10:17;1.40;;;0.77;;
5559;SDS011;2803;47.916;8.074;2024-03-22T14:12:43;4.20;;;0.90;;
5559;SDS011;2803;47.916;8.074;2024-03-22T14:15:11;3.30;;;0.93;;
5559;SDS011;2803;47.916;8.074;2024-03-22T14:17:38;1.63;;;0.90;;
5559;SDS011;2803;47.916;8.074;2024-03-22T14:20:05;6.53;;;1.10;;
5559;SDS011;2803;47.916;8.074;2024-03-22T14:22:36;2.77;;;0.80;;
5559;SDS011;2803;47.916;8.074;2024-03-22T14:25:05;1.43;;;0.73;;
5559;SDS011;2803;47.916;8.074;2024-03-22T14:27:31;3.43;;;1.10;;
5559;SDS011;2803;47.916;8.074;2024-03-22T14:29:58;2.60;;;1.40;;
5559;SDS011;2803;47.916;8.074;2024-03-22T14:32:24;1.07;;;0.80;;
5559;SDS011;2803;47.916;8.074;2024-03-22T14:34:51;2.20;;;0.90;;
5559;SDS011;2803;47.916;8.074;2024-03-22T14:37:18;3.00;;;0.90;;
5559;SDS011;2803;47.916;8.074;2024-03-22T14:39:43;1.53;;;0.80;;
5559;SDS011;2803;47.916;8.074;2024-03-22T14:42:12;2.40;;;0.77;;
5559;SDS011;2803;47.916;8.074;2024-03-22T14:44:38;1.90;;;0.97;;
5559;SDS011;2803;47.916;8.074;2024-03-22T14:47:05;2.07;;;0.73;;
5559;SDS011;2803;47.916;8.074;2024-03-22T14:49:31;1.10;;;0.73;;
5559;SDS011;2803;47.916;8.074;2024-03-22T14:51:58;2.47;;;0.90;;
5559;SDS011;2803;47.916;8.074;2024-03-22T14:54:23;1.73;;;0.80;;
5559;SDS011;2803;47.916;8.074;2024-03-22T14:56:50;1.73;;;1.10;;
5559;SDS011;2803;47.916;8.074;2024-03-22T14:59:17;3.07;;;0.80;;
5559;SDS011;2803;47.916;8.074;2024-03-22T15:01:44;2.33;;;0.90;;
5559;SDS011;2803;47.916;8.074;2024-03-22T15:04:10;1.47;;;1.00;;
5559;SDS011;2803;47.916;8.074;2024-03-22T15:06:37;5.10;;;1.07;;
5559;SDS011;2803;47.916;8.074;2024-03-22T15:09:03;2.83;;;1.13;;